sensor_id;sensor_type;location;lat;lon;timestamp;temperature;humidity
3818;DHT22;1924;48.078;11.516;2022-09-27T00:01:50;11.10;99.90
3818;DHT22;1924;48.078;11.516;2022-09-27T00:04:17;11.10;99.90
3818;DHT22;1924;48.078;11.516;2022-09-27T00:06:44;11.10;99.90
3818;DHT22;1924;48.078;11.516;2022-09-27T00:09:11;11.10;99.90
3818;DHT22;1924;48.078;11.516;2022-09-27T00:11:38;11.10;99.90
3818;DHT22;1924;48.078;11.516;2022-09-27T00:14:08;11.00;99.90
3818;DHT22;1924;48.078;11.516;2022-09-27T00:16:38;11.00;99.90
3818;DHT22;1924;48.078;11.516;2022-09-27T00:19:07;11.10;99.90
3818;DHT22;1924;48.078;11.516;2022-09-27T00:21:35;11.10;99.90
3818;DHT22;1924;48.078;11.516;2022-09-27T00:24:02;11.20;99.90
3818;DHT22;1924;48.078;11.516;2022-09-27T00:26:29;11.20;99.90
3818;DHT22;1924;48.078;11.516;2022-09-27T00:28:56;11.20;99.90
3818;DHT22;1924;48.078;11.516;2022-09-27T00:31:24;11.20;99.90
3818;DHT22;1924;48.078;11.516;2022-09-27T00:33:56;11.10;99.90
3818;DHT22;1924;48.078;11.516;2022-09-27T00:36:23;11.00;99.90
3818;DHT22;1924;48.078;11.516;2022-09-27T00:38:51;11.00;99.90
3818;DHT22;1924;48.078;11.516;2022-09-27T00:41:20;11.00;99.90
3818;DHT22;1924;48.078;11.516;2022-09-27T00:43:49;10.90;99.90
3818;DHT22;1924;48.078;11.516;2022-09-27T00:46:22;10.80;99.90
3818;DHT22;1924;48.078;11.516;2022-09-27T00:49:02;10.80;99.90
3818;DHT22;1924;48.078;11.516;2022-09-27T00:51:30;10.80;99.90
3818;DHT22;1924;48.078;11.516;2022-09-27T00:53:58;10.90;99.90
3818;DHT22;1924;48.078;11.516;2022-09-27T00:56:28;11.00;99.90
3818;DHT22;1924;48.078;11.516;2022-09-27T00:58:58;11.10;99.90
3818;DHT22;1924;48.078;11.516;2022-09-27T01:01:25;11.00;99.90
3818;DHT22;1924;48.078;11.516;2022-09-27T01:03:58;11.00;99.90
3818;DHT22;1924;48.078;11.516;2022-09-27T01:06:27;11.00;99.90
3818;DHT22;1924;48.078;11.516;2022-09-27T01:08:54;11.00;99.90
3818;DHT22;1924;48.078;11.516;2022-09-27T01:11:31;11.00;99.90
3818;DHT22;1924;48.078;11.516;2022-09-27T01:14:12;11.00;99.90
3818;DHT22;1924;48.078;11.516;2022-09-27T01:16:46;11.00;99.90
3818;DHT22;1924;48.078;11.516;2022-09-27T01:19:27;10.90;99.90
3818;DHT22;1924;48.078;11.516;2022-09-27T01:22:07;10.80;99.90
3818;DHT22;1924;48.078;11.516;2022-09-27T01:25:02;10.90;99.90
3818;DHT22;1924;48.078;11.516;2022-09-27T01:28:00;10.90;99.90
3818;DHT22;1924;48.078;11.516;2022-09-27T01:30:37;10.80;99.90
3818;DHT22;1924;48.078;11.516;2022-09-27T01:33:21;10.90;99.90
3818;DHT22;1924;48.078;11.516;2022-09-27T01:36:03;10.90;99.90
3818;DHT22;1924;48.078;11.516;2022-09-27T01:38:39;10.90;99.90
3818;DHT22;1924;48.078;11.516;2022-09-27T01:41:13;11.00;99.90
3818;DHT22;1924;48.078;11.516;2022-09-27T01:43:48;11.00;99.90
3818;DHT22;1924;48.078;11.516;2022-09-27T01:46:24;11.00;99.90
3818;DHT22;1924;48.078;11.516;2022-09-27T01:48:51;10.90;99.90
3818;DHT22;1924;48.078;11.516;2022-09-27T01:51:21;10.90;99.90
3818;DHT22;1924;48.078;11.516;2022-09-27T01:53:51;10.90;99.90
3818;DHT22;1924;48.078;11.516;2022-09-27T01:56:23;10.90;99.90
3818;DHT22;1924;48.078;11.516;2022-09-27T01:58:52;10.90;99.90
3818;DHT22;1924;48.078;11.516;2022-09-27T02:01:23;10.90;99.90
3818;DHT22;1924;48.078;11.516;2022-09-27T02:03:53;10.90;99.90
3818;DHT22;1924;48.078;11.516;2022-09-27T02:06:24;10.90;99.90
3818;DHT22;1924;48.078;11.516;2022-09-27T02:08:57;10.90;99.90
3818;DHT22;1924;48.078;11.516;2022-09-27T02:11:24;10.90;99.90
3818;DHT22;1924;48.078;11.516;2022-09-27T02:13:55;10.90;99.90
3818;DHT22;1924;48.078;11.516;2022-09-27T02:16:29;10.90;99.90
3818;DHT22;1924;48.078;11.516;2022-09-27T02:19:08;10.90;99.90
3818;DHT22;1924;48.078;11.516;2022-09-27T02:21:41;10.90;99.90
3818;DHT22;1924;48.078;11.516;2022-09-27T02:24:13;10.90;99.90
3818;DHT22;1924;48.078;11.516;2022-09-27T02:26:44;10.90;99.90
3818;DHT22;1924;48.078;11.516;2022-09-27T02:29:15;10.90;99.90
3818;DHT22;1924;48.078;11.516;2022-09-27T02:31:45;10.90;99.90
3818;DHT22;1924;48.078;11.516;2022-09-27T02:34:16;10.90;99.90
3818;DHT22;1924;48.078;11.516;2022-09-27T02:36:43;10.90;99.90
3818;DHT22;1924;48.078;11.516;2022-09-27T02:39:11;10.80;99.90
3818;DHT22;1924;48.078;11.516;2022-09-27T02:41:37;10.80;99.90
3818;DHT22;1924;48.078;11.516;2022-09-27T02:44:07;10.90;99.90
3818;DHT22;1924;48.078;11.516;2022-09-27T02:46:55;10.90;99.90
3818;DHT22;1924;48.078;11.516;2022-09-27T02:49:45;10.90;99.90
3818;DHT22;1924;48.078;11.516;2022-09-27T02:52:22;10.90;99.90
3818;DHT22;1924;48.078;11.516;2022-09-27T02:54:59;10.90;99.90
3818;DHT22;1924;48.078;11.516;2022-09-27T02:57:39;10.90;99.90
3818;DHT22;1924;48.078;11.516;2022-09-27T03:00:09;10.90;99.90
3818;DHT22;1924;48.078;11.516;2022-09-27T03:02:48;11.00;99.90
3818;DHT22;1924;48.078;11.516;2022-09-27T03:05:19;10.90;99.90
3818;DHT22;1924;48.078;11.516;2022-09-27T03:07:47;10.90;99.90
3818;DHT22;1924;48.078;11.516;2022-09-27T03:10:19;10.90;99.90
3818;DHT22;1924;48.078;11.516;2022-09-27T03:12:45;10.90;99.90
3818;DHT22;1924;48.078;11.516;2022-09-27T03:15:12;10.80;99.90
3818;DHT22;1924;48.078;11.516;2022-09-27T03:17:40;10.80;99.90
3818;DHT22;1924;48.078;11.516;2022-09-27T03:20:08;10.90;99.90
3818;DHT22;1924;48.078;11.516;2022-09-27T03:22:35;10.80;99.90
3818;DHT22;1924;48.078;11.516;2022-09-27T03:25:03;10.80;99.90
3818;DHT22;1924;48.078;11.516;2022-09-27T03:27:29;10.80;99.90
3818;DHT22;1924;48.078;11.516;2022-09-27T03:29:56;10.80;99.90
3818;DHT22;1924;48.078;11.516;2022-09-27T03:32:24;10.80;99.90
3818;DHT22;1924;48.078;11.516;2022-09-27T03:34:52;10.90;99.90
3818;DHT22;1924;48.078;11.516;2022-09-27T03:37:19;10.90;99.90
3818;DHT22;1924;48.078;11.516;2022-09-27T03:39:46;10.80;99.90
3818;DHT22;1924;48.078;11.516;2022-09-27T03:42:13;10.70;99.90
3818;DHT22;1924;48.078;11.516;2022-09-27T03:44:39;10.70;99.90
3818;DHT22;1924;48.078;11.516;2022-09-27T03:47:06;10.70;99.90
3818;DHT22;1924;48.078;11.516;2022-09-27T03:49:33;10.80;99.90
3818;DHT22;1924;48.078;11.516;2022-09-27T03:52:01;10.80;99.90
3818;DHT22;1924;48.078;11.516;2022-09-27T03:54:28;10.80;99.90
3818;DHT22;1924;48.078;11.516;2022-09-27T03:56:54;10.80;99.90
3818;DHT22;1924;48.078;11.516;2022-09-27T03:59:21;10.80;99.90
3818;DHT22;1924;48.078;11.516;2022-09-27T04:01:48;10.70;99.90
3818;DHT22;1924;48.078;11.516;2022-09-27T04:04:15;10.70;99.90
3818;DHT22;1924;48.078;11.516;2022-09-27T04:06:41;10.70;99.90
3818;DHT22;1924;48.078;11.516;2022-09-27T04:09:09;10.70;99.90
3818;DHT22;1924;48.078;11.516;2022-09-27T04:11:36;10.70;99.90
3818;DHT22;1924;48.078;11.516;2022-09-27T04:14:03;10.70;99.90
3818;DHT22;1924;48.078;11.516;2022-09-27T04:16:30;10.80;99.90
3818;DHT22;1924;48.078;11.516;2022-09-27T04:18:58;10.80;99.90
3818;DHT22;1924;48.078;11.516;2022-09-27T04:21:26;10.80;99.90
3818;DHT22;1924;48.078;11.516;2022-09-27T04:23:53;10.90;99.90
3818;DHT22;1924;48.078;11.516;2022-09-27T04:26:21;10.80;99.90
3818;DHT22;1924;48.078;11.516;2022-09-27T04:28:47;10.80;99.90
3818;DHT22;1924;48.078;11.516;2022-09-27T04:31:15;10.90;99.90
3818;DHT22;1924;48.078;11.516;2022-09-27T04:33:42;10.90;99.90
3818;DHT22;1924;48.078;11.516;2022-09-27T04:36:10;10.90;99.90
3818;DHT22;1924;48.078;11.516;2022-09-27T04:38:51;10.90;99.90
3818;DHT22;1924;48.078;11.516;2022-09-27T04:41:21;10.90;99.90
3818;DHT22;1924;48.078;11.516;2022-09-27T04:43:48;10.80;99.90
3818;DHT22;1924;48.078;11.516;2022-09-27T04:46:15;10.80;99.90
3818;DHT22;1924;48.078;11.516;2022-09-27T04:48:42;10.80;99.90
3818;DHT22;1924;48.078;11.516;2022-09-27T04:51:09;10.80;99.90
3818;DHT22;1924;48.078;11.516;2022-09-27T04:53:36;10.80;99.90
3818;DHT22;1924;48.078;11.516;2022-09-27T04:56:03;10.80;99.90
3818;DHT22;1924;48.078;11.516;2022-09-27T04:58:32;10.80;99.90
3818;DHT22;1924;48.078;11.516;2022-09-27T05:00:59;10.80;99.90
3818;DHT22;1924;48.078;11.516;2022-09-27T05:03:27;10.90;99.90
3818;DHT22;1924;48.078;11.516;2022-09-27T05:05:53;10.80;99.90
3818;DHT22;1924;48.078;11.516;2022-09-27T05:08:21;10.70;99.90
3818;DHT22;1924;48.078;11.516;2022-09-27T05:10:48;10.60;99.90
3818;DHT22;1924;48.078;11.516;2022-09-27T05:13:15;10.60;99.90
3818;DHT22;1924;48.078;11.516;2022-09-27T05:15:44;10.60;99.90
3818;DHT22;1924;48.078;11.516;2022-09-27T05:18:11;10.70;99.90
3818;DHT22;1924;48.078;11.516;2022-09-27T05:20:38;10.70;99.90
3818;DHT22;1924;48.078;11.516;2022-09-27T05:23:05;10.60;99.90
3818;DHT22;1924;48.078;11.516;2022-09-27T05:25:32;10.60;99.90
3818;DHT22;1924;48.078;11.516;2022-09-27T05:27:59;10.40;99.90
3818;DHT22;1924;48.078;11.516;2022-09-27T05:30:26;10.40;99.90
3818;DHT22;1924;48.078;11.516;2022-09-27T05:32:54;10.40;99.90
3818;DHT22;1924;48.078;11.516;2022-09-27T05:35:21;10.50;99.90
3818;DHT22;1924;48.078;11.516;2022-09-27T05:37:52;10.50;99.90
3818;DHT22;1924;48.078;11.516;2022-09-27T05:40:19;10.50;99.90
3818;DHT22;1924;48.078;11.516;2022-09-27T05:42:49;10.50;99.90
3818;DHT22;1924;48.078;11.516;2022-09-27T05:45:16;10.50;99.90
3818;DHT22;1924;48.078;11.516;2022-09-27T05:47:43;10.60;99.90
3818;DHT22;1924;48.078;11.516;2022-09-27T05:50:11;10.60;99.90
3818;DHT22;1924;48.078;11.516;2022-09-27T05:52:37;10.60;99.90
3818;DHT22;1924;48.078;11.516;2022-09-27T05:55:04;10.50;99.90
3818;DHT22;1924;48.078;11.516;2022-09-27T05:57:31;10.60;99.90
3818;DHT22;1924;48.078;11.516;2022-09-27T05:59:59;10.60;99.90
3818;DHT22;1924;48.078;11.516;2022-09-27T06:02:26;10.60;99.90
3818;DHT22;1924;48.078;11.516;2022-09-27T06:04:52;10.60;99.90
3818;DHT22;1924;48.078;11.516;2022-09-27T06:07:21;10.50;99.90
3818;DHT22;1924;48.078;11.516;2022-09-27T06:09:48;10.50;99.90
3818;DHT22;1924;48.078;11.516;2022-09-27T06:12:14;10.50;99.90
3818;DHT22;1924;48.078;11.516;2022-09-27T06:14:41;10.50;99.90
3818;DHT22;1924;48.078;11.516;2022-09-27T06:17:08;10.50;99.90
3818;DHT22;1924;48.078;11.516;2022-09-27T06:19:34;10.50;99.90
3818;DHT22;1924;48.078;11.516;2022-09-27T06:22:01;10.50;99.90
3818;DHT22;1924;48.078;11.516;2022-09-27T06:24:29;10.40;99.90
3818;DHT22;1924;48.078;11.516;2022-09-27T06:26:56;10.20;99.90
3818;DHT22;1924;48.078;11.516;2022-09-27T06:29:23;10.20;99.90
3818;DHT22;1924;48.078;11.516;2022-09-27T06:31:50;10.30;99.90
3818;DHT22;1924;48.078;11.516;2022-09-27T06:34:17;10.30;99.90
3818;DHT22;1924;48.078;11.516;2022-09-27T06:36:43;10.30;99.90
3818;DHT22;1924;48.078;11.516;2022-09-27T06:39:11;10.20;99.90
3818;DHT22;1924;48.078;11.516;2022-09-27T06:41:39;10.40;99.90
3818;DHT22;1924;48.078;11.516;2022-09-27T06:44:06;10.40;99.90
3818;DHT22;1924;48.078;11.516;2022-09-27T06:46:32;10.40;99.90
3818;DHT22;1924;48.078;11.516;2022-09-27T06:48:59;10.30;99.90
3818;DHT22;1924;48.078;11.516;2022-09-27T06:51:26;10.40;99.90
3818;DHT22;1924;48.078;11.516;2022-09-27T06:53:52;10.50;99.90
3818;DHT22;1924;48.078;11.516;2022-09-27T06:56:19;10.40;99.90
3818;DHT22;1924;48.078;11.516;2022-09-27T06:58:47;10.50;99.90
3818;DHT22;1924;48.078;11.516;2022-09-27T07:01:31;10.50;99.90
3818;DHT22;1924;48.078;11.516;2022-09-27T07:03:58;10.60;99.90
3818;DHT22;1924;48.078;11.516;2022-09-27T07:06:25;10.60;99.90
3818;DHT22;1924;48.078;11.516;2022-09-27T07:08:52;10.60;99.90
3818;DHT22;1924;48.078;11.516;2022-09-27T07:11:20;10.50;99.90
3818;DHT22;1924;48.078;11.516;2022-09-27T07:13:49;10.60;99.90
3818;DHT22;1924;48.078;11.516;2022-09-27T07:16:16;10.70;99.90
3818;DHT22;1924;48.078;11.516;2022-09-27T07:18:43;10.80;99.90
3818;DHT22;1924;48.078;11.516;2022-09-27T07:21:10;10.80;99.90
3818;DHT22;1924;48.078;11.516;2022-09-27T07:23:37;10.80;99.90
3818;DHT22;1924;48.078;11.516;2022-09-27T07:26:04;10.80;99.90
3818;DHT22;1924;48.078;11.516;2022-09-27T07:28:32;10.70;99.90
3818;DHT22;1924;48.078;11.516;2022-09-27T07:31:01;10.70;99.90
3818;DHT22;1924;48.078;11.516;2022-09-27T07:33:28;10.60;99.90
3818;DHT22;1924;48.078;11.516;2022-09-27T07:35:55;10.80;99.90
3818;DHT22;1924;48.078;11.516;2022-09-27T07:38:22;10.90;99.90
3818;DHT22;1924;48.078;11.516;2022-09-27T07:40:49;10.90;99.90
3818;DHT22;1924;48.078;11.516;2022-09-27T07:43:15;10.90;99.90
3818;DHT22;1924;48.078;11.516;2022-09-27T07:45:43;10.90;99.90
3818;DHT22;1924;48.078;11.516;2022-09-27T07:48:13;10.90;99.90
3818;DHT22;1924;48.078;11.516;2022-09-27T07:50:40;10.90;99.90
3818;DHT22;1924;48.078;11.516;2022-09-27T07:53:07;11.00;99.90
3818;DHT22;1924;48.078;11.516;2022-09-27T07:55:37;11.10;99.90
3818;DHT22;1924;48.078;11.516;2022-09-27T07:58:05;11.00;99.90
3818;DHT22;1924;48.078;11.516;2022-09-27T08:00:33;11.10;99.90
3818;DHT22;1924;48.078;11.516;2022-09-27T08:03:03;11.20;99.90
3818;DHT22;1924;48.078;11.516;2022-09-27T08:05:32;11.10;99.90
3818;DHT22;1924;48.078;11.516;2022-09-27T08:08:00;11.10;99.90
3818;DHT22;1924;48.078;11.516;2022-09-27T08:10:28;11.20;99.90
3818;DHT22;1924;48.078;11.516;2022-09-27T08:12:56;11.20;99.90
3818;DHT22;1924;48.078;11.516;2022-09-27T08:15:23;11.30;99.90
3818;DHT22;1924;48.078;11.516;2022-09-27T08:17:49;11.30;99.90
3818;DHT22;1924;48.078;11.516;2022-09-27T08:20:16;11.20;99.90
3818;DHT22;1924;48.078;11.516;2022-09-27T08:22:44;11.00;99.90
3818;DHT22;1924;48.078;11.516;2022-09-27T08:25:11;10.70;99.90
3818;DHT22;1924;48.078;11.516;2022-09-27T08:27:38;10.20;99.90
3818;DHT22;1924;48.078;11.516;2022-09-27T08:30:06;10.00;99.90
3818;DHT22;1924;48.078;11.516;2022-09-27T08:32:33;9.60;99.90
3818;DHT22;1924;48.078;11.516;2022-09-27T08:35:01;9.70;99.90
3818;DHT22;1924;48.078;11.516;2022-09-27T08:37:28;9.70;99.90
3818;DHT22;1924;48.078;11.516;2022-09-27T08:39:56;9.70;99.90
3818;DHT22;1924;48.078;11.516;2022-09-27T08:42:30;9.50;99.90
3818;DHT22;1924;48.078;11.516;2022-09-27T08:45:03;9.50;99.90
3818;DHT22;1924;48.078;11.516;2022-09-27T08:47:36;9.60;99.90
3818;DHT22;1924;48.078;11.516;2022-09-27T08:50:15;9.60;99.90
3818;DHT22;1924;48.078;11.516;2022-09-27T08:52:47;9.60;99.90
3818;DHT22;1924;48.078;11.516;2022-09-27T08:55:21;9.80;99.90
3818;DHT22;1924;48.078;11.516;2022-09-27T08:57:54;10.00;99.90
3818;DHT22;1924;48.078;11.516;2022-09-27T09:00:22;10.10;99.90
3818;DHT22;1924;48.078;11.516;2022-09-27T09:02:49;10.30;99.90
3818;DHT22;1924;48.078;11.516;2022-09-27T09:05:22;10.60;99.90
3818;DHT22;1924;48.078;11.516;2022-09-27T09:08:10;10.50;99.90
3818;DHT22;1924;48.078;11.516;2022-09-27T09:10:49;10.40;99.90
3818;DHT22;1924;48.078;11.516;2022-09-27T09:13:49;10.20;99.90
3818;DHT22;1924;48.078;11.516;2022-09-27T09:16:29;10.20;99.90
3818;DHT22;1924;48.078;11.516;2022-09-27T09:19:08;10.20;99.90
3818;DHT22;1924;48.078;11.516;2022-09-27T09:21:47;10.10;99.90
3818;DHT22;1924;48.078;11.516;2022-09-27T09:24:25;10.20;99.90
3818;DHT22;1924;48.078;11.516;2022-09-27T09:27:01;10.30;99.90
3818;DHT22;1924;48.078;11.516;2022-09-27T09:29:44;10.40;99.90
3818;DHT22;1924;48.078;11.516;2022-09-27T09:32:22;10.60;99.90
3818;DHT22;1924;48.078;11.516;2022-09-27T09:34:56;10.70;99.90
3818;DHT22;1924;48.078;11.516;2022-09-27T09:37:34;10.80;99.90
3818;DHT22;1924;48.078;11.516;2022-09-27T09:40:12;11.00;99.90
3818;DHT22;1924;48.078;11.516;2022-09-27T09:42:44;11.10;99.90
3818;DHT22;1924;48.078;11.516;2022-09-27T09:45:16;10.80;99.90
3818;DHT22;1924;48.078;11.516;2022-09-27T09:47:45;10.70;99.90
3818;DHT22;1924;48.078;11.516;2022-09-27T09:50:17;10.40;99.90
3818;DHT22;1924;48.078;11.516;2022-09-27T09:52:48;10.40;99.90
3818;DHT22;1924;48.078;11.516;2022-09-27T09:55:18;10.50;99.90
3818;DHT22;1924;48.078;11.516;2022-09-27T09:57:56;10.60;99.90
3818;DHT22;1924;48.078;11.516;2022-09-27T10:00:25;10.60;99.90
3818;DHT22;1924;48.078;11.516;2022-09-27T10:02:53;10.40;99.90
3818;DHT22;1924;48.078;11.516;2022-09-27T10:05:22;10.30;99.90
3818;DHT22;1924;48.078;11.516;2022-09-27T10:07:51;10.30;99.90
3818;DHT22;1924;48.078;11.516;2022-09-27T10:10:20;10.30;99.90
3818;DHT22;1924;48.078;11.516;2022-09-27T10:12:49;10.30;99.90
3818;DHT22;1924;48.078;11.516;2022-09-27T10:15:18;10.30;99.90
3818;DHT22;1924;48.078;11.516;2022-09-27T10:17:47;10.20;99.90
3818;DHT22;1924;48.078;11.516;2022-09-27T10:20:24;10.20;99.90
3818;DHT22;1924;48.078;11.516;2022-09-27T10:22:53;10.20;99.90
3818;DHT22;1924;48.078;11.516;2022-09-27T10:25:23;10.30;99.90
3818;DHT22;1924;48.078;11.516;2022-09-27T10:27:53;10.20;99.90
3818;DHT22;1924;48.078;11.516;2022-09-27T10:30:24;10.20;99.90
3818;DHT22;1924;48.078;11.516;2022-09-27T10:32:55;10.30;99.90
3818;DHT22;1924;48.078;11.516;2022-09-27T10:35:34;10.30;99.90
3818;DHT22;1924;48.078;11.516;2022-09-27T10:38:27;10.30;99.90
3818;DHT22;1924;48.078;11.516;2022-09-27T10:41:13;10.10;99.90
3818;DHT22;1924;48.078;11.516;2022-09-27T10:43:42;10.10;99.90
3818;DHT22;1924;48.078;11.516;2022-09-27T10:46:13;10.10;99.90
3818;DHT22;1924;48.078;11.516;2022-09-27T10:48:42;10.20;99.90
3818;DHT22;1924;48.078;11.516;2022-09-27T10:51:22;10.20;99.90
3818;DHT22;1924;48.078;11.516;2022-09-27T10:53:50;10.20;99.90
3818;DHT22;1924;48.078;11.516;2022-09-27T10:56:26;10.40;99.90
3818;DHT22;1924;48.078;11.516;2022-09-27T10:58:57;10.40;99.90
3818;DHT22;1924;48.078;11.516;2022-09-27T11:01:25;10.80;99.90
3818;DHT22;1924;48.078;11.516;2022-09-27T11:03:54;11.20;99.90
3818;DHT22;1924;48.078;11.516;2022-09-27T11:06:31;11.80;99.90
3818;DHT22;1924;48.078;11.516;2022-09-27T11:09:18;12.10;99.90
3818;DHT22;1924;48.078;11.516;2022-09-27T11:11:50;12.10;99.90
3818;DHT22;1924;48.078;11.516;2022-09-27T11:14:20;12.00;99.90
3818;DHT22;1924;48.078;11.516;2022-09-27T11:17:01;12.10;99.90
3818;DHT22;1924;48.078;11.516;2022-09-27T11:22:29;11.90;99.90
3818;DHT22;1924;48.078;11.516;2022-09-27T11:25:09;11.40;99.90
3818;DHT22;1924;48.078;11.516;2022-09-27T11:27:44;11.20;99.90
3818;DHT22;1924;48.078;11.516;2022-09-27T11:30:16;11.00;99.90
3818;DHT22;1924;48.078;11.516;2022-09-27T11:33:15;11.00;99.90
3818;DHT22;1924;48.078;11.516;2022-09-27T11:35:58;11.00;99.90
3818;DHT22;1924;48.078;11.516;2022-09-27T11:38:30;10.90;99.90
3818;DHT22;1924;48.078;11.516;2022-09-27T11:41:10;10.80;99.90
3818;DHT22;1924;48.078;11.516;2022-09-27T11:44:15;10.80;99.90
3818;DHT22;1924;48.078;11.516;2022-09-27T11:46:52;10.90;99.90
3818;DHT22;1924;48.078;11.516;2022-09-27T11:52:26;11.00;99.90
3818;DHT22;1924;48.078;11.516;2022-09-27T11:55:12;11.00;99.90
3818;DHT22;1924;48.078;11.516;2022-09-27T11:57:42;11.00;99.90
3818;DHT22;1924;48.078;11.516;2022-09-27T12:00:15;10.90;99.90
3818;DHT22;1924;48.078;11.516;2022-09-27T12:06:05;10.90;99.90
3818;DHT22;1924;48.078;11.516;2022-09-27T12:08:44;10.80;99.90
3818;DHT22;1924;48.078;11.516;2022-09-27T12:11:18;10.80;99.90
3818;DHT22;1924;48.078;11.516;2022-09-27T12:13:49;10.80;99.90
3818;DHT22;1924;48.078;11.516;2022-09-27T12:16:18;10.80;99.90
3818;DHT22;1924;48.078;11.516;2022-09-27T12:18:47;10.90;99.90
3818;DHT22;1924;48.078;11.516;2022-09-27T12:21:17;11.00;99.90
3818;DHT22;1924;48.078;11.516;2022-09-27T12:23:46;11.30;99.90
3818;DHT22;1924;48.078;11.516;2022-09-27T12:26:16;11.70;99.90
3818;DHT22;1924;48.078;11.516;2022-09-27T12:28:50;12.10;99.90
3818;DHT22;1924;48.078;11.516;2022-09-27T12:31:22;12.30;99.90
3818;DHT22;1924;48.078;11.516;2022-09-27T12:33:59;12.20;99.90
3818;DHT22;1924;48.078;11.516;2022-09-27T12:36:31;12.10;99.90
3818;DHT22;1924;48.078;11.516;2022-09-27T12:39:04;12.20;99.90
3818;DHT22;1924;48.078;11.516;2022-09-27T12:41:36;12.30;99.90
3818;DHT22;1924;48.078;11.516;2022-09-27T12:44:04;12.90;99.90
3818;DHT22;1924;48.078;11.516;2022-09-27T12:46:42;13.10;99.90
3818;DHT22;1924;48.078;11.516;2022-09-27T12:49:16;13.00;99.90
3818;DHT22;1924;48.078;11.516;2022-09-27T12:51:50;12.80;99.90
3818;DHT22;1924;48.078;11.516;2022-09-27T12:57:37;12.10;99.90
3818;DHT22;1924;48.078;11.516;2022-09-27T13:00:09;12.00;99.90
3818;DHT22;1924;48.078;11.516;2022-09-27T13:03:02;12.10;99.90
3818;DHT22;1924;48.078;11.516;2022-09-27T13:08:51;12.20;99.90
3818;DHT22;1924;48.078;11.516;2022-09-27T13:11:28;12.00;99.90
3818;DHT22;1924;48.078;11.516;2022-09-27T13:14:02;12.20;99.90
3818;DHT22;1924;48.078;11.516;2022-09-27T13:16:30;12.10;99.90
3818;DHT22;1924;48.078;11.516;2022-09-27T13:18:58;11.90;99.90
3818;DHT22;1924;48.078;11.516;2022-09-27T13:21:53;12.20;99.90
3818;DHT22;1924;48.078;11.516;2022-09-27T13:24:46;12.20;99.90
3818;DHT22;1924;48.078;11.516;2022-09-27T13:27:36;12.30;99.90
3818;DHT22;1924;48.078;11.516;2022-09-27T13:33:29;11.90;99.90
3818;DHT22;1924;48.078;11.516;2022-09-27T13:36:16;11.60;99.90
3818;DHT22;1924;48.078;11.516;2022-09-27T13:38:52;11.50;99.90
3818;DHT22;1924;48.078;11.516;2022-09-27T13:41:30;11.50;99.90
3818;DHT22;1924;48.078;11.516;2022-09-27T13:44:05;11.60;99.90
3818;DHT22;1924;48.078;11.516;2022-09-27T13:46:45;11.70;99.90
3818;DHT22;1924;48.078;11.516;2022-09-27T13:49:18;11.60;99.90
3818;DHT22;1924;48.078;11.516;2022-09-27T13:51:50;11.60;99.90
3818;DHT22;1924;48.078;11.516;2022-09-27T13:54:37;11.50;99.90
3818;DHT22;1924;48.078;11.516;2022-09-27T14:00:19;11.40;99.90
3818;DHT22;1924;48.078;11.516;2022-09-27T14:03:01;11.30;99.90
3818;DHT22;1924;48.078;11.516;2022-09-27T14:05:33;11.10;99.90
3818;DHT22;1924;48.078;11.516;2022-09-27T14:08:03;11.10;99.90
3818;DHT22;1924;48.078;11.516;2022-09-27T14:10:34;11.20;99.90
3818;DHT22;1924;48.078;11.516;2022-09-27T14:13:03;11.30;99.90
3818;DHT22;1924;48.078;11.516;2022-09-27T14:15:33;11.20;99.90
3818;DHT22;1924;48.078;11.516;2022-09-27T14:18:01;11.10;99.90
3818;DHT22;1924;48.078;11.516;2022-09-27T14:20:36;11.00;99.90
3818;DHT22;1924;48.078;11.516;2022-09-27T14:23:05;11.00;99.90
3818;DHT22;1924;48.078;11.516;2022-09-27T14:25:38;11.10;99.90
3818;DHT22;1924;48.078;11.516;2022-09-27T14:28:19;11.10;99.90
3818;DHT22;1924;48.078;11.516;2022-09-27T14:30:47;11.20;99.90
3818;DHT22;1924;48.078;11.516;2022-09-27T14:33:27;11.30;99.90
3818;DHT22;1924;48.078;11.516;2022-09-27T14:35:54;11.40;99.90
3818;DHT22;1924;48.078;11.516;2022-09-27T14:38:39;11.20;99.90
3818;DHT22;1924;48.078;11.516;2022-09-27T14:41:08;11.20;99.90
3818;DHT22;1924;48.078;11.516;2022-09-27T14:43:41;11.20;99.90
3818;DHT22;1924;48.078;11.516;2022-09-27T14:46:24;11.10;99.90
3818;DHT22;1924;48.078;11.516;2022-09-27T14:48:51;11.00;99.90
3818;DHT22;1924;48.078;11.516;2022-09-27T14:51:25;11.00;99.90
3818;DHT22;1924;48.078;11.516;2022-09-27T14:53:55;11.10;99.90
3818;DHT22;1924;48.078;11.516;2022-09-27T14:56:25;11.10;99.90
3818;DHT22;1924;48.078;11.516;2022-09-27T14:58:56;11.20;99.90
3818;DHT22;1924;48.078;11.516;2022-09-27T15:01:28;11.20;99.90
3818;DHT22;1924;48.078;11.516;2022-09-27T15:04:01;11.10;99.90
3818;DHT22;1924;48.078;11.516;2022-09-27T15:06:28;11.10;99.90
3818;DHT22;1924;48.078;11.516;2022-09-27T15:08:57;10.90;99.90
3818;DHT22;1924;48.078;11.516;2022-09-27T15:11:24;10.90;99.90
3818;DHT22;1924;48.078;11.516;2022-09-27T15:13:52;10.90;99.90
3818;DHT22;1924;48.078;11.516;2022-09-27T15:16:20;10.90;99.90
3818;DHT22;1924;48.078;11.516;2022-09-27T15:18:58;11.00;99.90
3818;DHT22;1924;48.078;11.516;2022-09-27T15:21:29;10.90;99.90
3818;DHT22;1924;48.078;11.516;2022-09-27T15:23:57;10.90;99.90
3818;DHT22;1924;48.078;11.516;2022-09-27T15:26:32;11.00;99.90
3818;DHT22;1924;48.078;11.516;2022-09-27T15:29:00;10.90;99.90
3818;DHT22;1924;48.078;11.516;2022-09-27T15:31:31;10.90;99.90
3818;DHT22;1924;48.078;11.516;2022-09-27T15:33:59;11.00;99.90
3818;DHT22;1924;48.078;11.516;2022-09-27T15:36:49;11.00;99.90
3818;DHT22;1924;48.078;11.516;2022-09-27T15:39:18;11.20;99.90
3818;DHT22;1924;48.078;11.516;2022-09-27T15:42:00;11.20;99.90
3818;DHT22;1924;48.078;11.516;2022-09-27T15:44:37;11.20;99.90
3818;DHT22;1924;48.078;11.516;2022-09-27T15:47:04;11.30;99.90
3818;DHT22;1924;48.078;11.516;2022-09-27T15:49:32;11.20;99.90
3818;DHT22;1924;48.078;11.516;2022-09-27T15:52:00;11.10;99.90
3818;DHT22;1924;48.078;11.516;2022-09-27T15:54:28;10.90;99.90
3818;DHT22;1924;48.078;11.516;2022-09-27T15:57:00;10.90;99.90
3818;DHT22;1924;48.078;11.516;2022-09-27T15:59:30;10.90;99.90
3818;DHT22;1924;48.078;11.516;2022-09-27T16:02:00;10.80;99.90
3818;DHT22;1924;48.078;11.516;2022-09-27T16:04:27;10.80;99.90
3818;DHT22;1924;48.078;11.516;2022-09-27T16:06:58;10.90;99.90
3818;DHT22;1924;48.078;11.516;2022-09-27T16:09:25;10.80;99.90
3818;DHT22;1924;48.078;11.516;2022-09-27T16:11:52;10.80;99.90
3818;DHT22;1924;48.078;11.516;2022-09-27T16:14:18;11.00;99.90
3818;DHT22;1924;48.078;11.516;2022-09-27T16:16:47;11.00;99.90
3818;DHT22;1924;48.078;11.516;2022-09-27T16:19:14;10.90;99.90
3818;DHT22;1924;48.078;11.516;2022-09-27T16:21:41;10.90;99.90
3818;DHT22;1924;48.078;11.516;2022-09-27T16:24:10;10.90;99.90
3818;DHT22;1924;48.078;11.516;2022-09-27T16:26:37;10.80;99.90
3818;DHT22;1924;48.078;11.516;2022-09-27T16:29:04;10.80;99.90
3818;DHT22;1924;48.078;11.516;2022-09-27T16:31:34;10.70;99.90
3818;DHT22;1924;48.078;11.516;2022-09-27T16:34:01;10.70;99.90
3818;DHT22;1924;48.078;11.516;2022-09-27T16:36:28;10.60;99.90